Time;durP1;ratioP1;P1;durP2;ratioP2;P2;SDS_P1;SDS_P2;PMS_P1;PMS_P2;Temp;Humidity;BMP_temperature;BMP_pressure;BME280_temperature;BME280_humidity;BME280_pressure;Samples;Min_cycle;Max_cycle;Signal;HPM_P1;HPM_P2
2022/06/15 00:00:44;;;;;;;5.45;3.50;;;;;;;19.20;44.28;101793.66;5033692;28;20033;-67
2022/06/15 00:03:21;;;;;;;5.65;3.38;;;;;;;19.16;44.47;101786.78;5020611;28;20080;-66
2022/06/15 00:05:47;;;;;;;6.25;3.28;;;;;;;19.13;44.51;101791.66;5022124;28;20092;-67
2022/06/15 00:08:14;;;;;;;7.25;4.05;;;;;;;19.09;44.14;101795.66;5024427;28;20033;-66
2022/06/15 00:10:41;;;;;;;5.57;3.58;;;;;;;19.03;44.60;101791.63;5031836;28;20045;-66
2022/06/15 00:13:09;;;;;;;6.93;3.50;;;;;;;19.01;44.67;101799.06;5028449;28;20102;-66
2022/06/15 00:15:36;;;;;;;7.00;3.20;;;;;;;18.97;44.34;101793.06;5032637;28;20117;-67
2022/06/15 00:18:03;;;;;;;6.85;3.58;;;;;;;18.92;44.79;101792.63;5022521;28;20045;-67
2022/06/15 00:20:30;;;;;;;9.80;3.55;;;;;;;18.88;44.83;101793.91;5034981;28;20048;-66
2022/06/15 00:22:58;;;;;;;6.93;3.13;;;;;;;18.86;44.62;101786.88;5021264;28;20108;-66
2022/06/15 00:25:24;;;;;;;5.68;3.00;;;;;;;18.85;44.93;101794.19;5033702;28;20048;-67
2022/06/15 00:27:51;;;;;;;6.55;3.10;;;;;;;18.82;44.78;101780.84;5026579;28;20073;-67
2022/06/15 00:30:21;;;;;;;4.53;3.10;;;;;;;18.80;45.16;101785.56;5046444;28;20094;-67
2022/06/15 00:32:48;;;;;;;5.75;3.60;;;;;;;18.79;45.13;101783.00;5037653;28;20099;-66
2022/06/15 00:35:17;;;;;;;5.00;3.15;;;;;;;18.76;45.21;101784.13;5043371;28;20132;-66
2022/06/15 00:37:43;;;;;;;4.97;3.00;;;;;;;18.75;44.92;101789.72;5031905;28;20092;-67
2022/06/15 00:40:10;;;;;;;4.18;3.10;;;;;;;18.71;45.25;101790.00;5033271;28;20041;-67
2022/06/15 00:42:38;;;;;;;4.70;2.85;;;;;;;18.70;45.42;101785.53;5034612;28;20444;-67
2022/06/15 00:45:05;;;;;;;5.93;3.40;;;;;;;18.66;45.06;101775.94;5027704;28;20037;-66
2022/06/15 00:47:37;;;;;;;5.10;3.25;;;;;;;18.63;45.50;101776.22;5032190;28;20120;-67
2022/06/15 00:50:09;;;;;;;5.50;3.35;;;;;;;18.59;45.33;101776.59;5032675;28;20045;-67
2022/06/15 00:52:54;;;;;;;5.70;3.03;;;;;;;18.54;45.48;101776.13;5030908;28;20057;-67
2022/06/15 00:55:29;;;;;;;4.47;3.08;;;;;;;18.50;45.70;101772.81;5026916;28;20029;-67
2022/06/15 00:57:57;;;;;;;5.30;3.35;;;;;;;18.47;45.49;101772.22;5032942;28;20160;-68
2022/06/15 01:00:26;;;;;;;6.82;2.97;;;;;;;18.43;45.55;101768.91;5043555;28;20052;-67
2022/06/15 01:02:54;;;;;;;7.18;3.13;;;;;;;18.39;45.88;101772.91;5034221;28;20037;-66
2022/06/15 01:05:46;;;;;;;6.80;3.13;;;;;;;18.35;46.02;101769.63;5032732;28;20068;-66
2022/06/15 01:08:24;;;;;;;5.22;2.90;;;;;;;18.30;45.63;101774.59;5032677;28;20076;-67
2022/06/15 01:11:21;;;;;;;5.22;3.20;;;;;;;18.23;45.99;101773.41;5031352;28;20037;-67
2022/06/15 01:13:58;;;;;;;6.85;3.20;;;;;;;18.18;45.83;101770.25;5036944;28;20390;-67
2022/06/15 01:16:52;;;;;;;4.60;3.25;;;;;;;18.13;46.14;101769.78;5031810;28;20034;-67
2022/06/15 01:19:34;;;;;;;6.15;3.65;;;;;;;18.08;46.05;101769.34;5048026;28;20076;-67
2022/06/15 01:22:21;;;;;;;5.45;3.40;;;;;;;18.04;46.21;101771.47;5026697;28;20069;-67
2022/06/15 01:25:00;;;;;;;5.68;3.88;;;;;;;18.04;46.01;101765.19;5038586;28;20033;-67
2022/06/15 01:27:45;;;;;;;6.40;3.45;;;;;;;18.03;46.11;101777.03;5035129;28;20048;-66
2022/06/15 01:30:44;;;;;;;9.10;3.70;;;;;;;18.01;46.01;101773.59;5041627;28;20132;-66
2022/06/15 01:33:29;;;;;;;4.50;3.00;;;;;;;17.98;46.46;101771.16;5030268;28;20116;-66
2022/06/15 01:36:08;;;;;;;4.38;2.95;;;;;;;17.96;46.18;101774.00;5030768;28;20034;-66
2022/06/15 01:38:40;;;;;;;4.28;3.13;;;;;;;17.92;46.65;101766.25;5028578;28;20042;-66
2022/06/15 01:41:39;;;;;;;5.40;3.20;;;;;;;17.90;46.62;101765.53;5027744;28;20042;-66
2022/06/15 01:44:39;;;;;;;5.40;3.03;;;;;;;17.86;46.60;101762.22;5019926;28;20038;-67
2022/06/15 01:47:15;;;;;;;7.03;3.17;;;;;;;17.86;46.48;101759.50;5032969;28;20049;-67
2022/06/15 01:49:46;;;;;;;5.60;3.13;;;;;;;17.85;46.49;101759.63;5015870;28;20037;-68
2022/06/15 01:52:20;;;;;;;4.53;2.97;;;;;;;17.84;46.54;101753.34;5027241;28;20483;-67
2022/06/15 01:54:55;;;;;;;4.50;3.45;;;;;;;17.84;46.56;101755.19;5022510;28;20088;-66
2022/06/15 01:57:22;;;;;;;6.68;3.85;;;;;;;17.82;46.72;101758.00;5018446;28;20059;-66
2022/06/15 02:00:00;;;;;;;3.60;3.30;;;;;;;17.80;46.67;101760.00;5030527;28;20049;-66
2022/06/15 02:02:55;;;;;;;7.18;3.35;;;;;;;17.78;46.68;101762.84;5018364;28;20538;-66
2022/06/15 02:05:34;;;;;;;8.13;3.75;;;;;;;17.76;47.09;101761.25;5031409;28;20339;-66
2022/06/15 02:08:28;;;;;;;5.38;3.55;;;;;;;17.73;47.03;101750.66;5044510;28;20061;-67
2022/06/15 02:11:31;;;;;;;4.53;3.58;;;;;;;17.70;47.26;101756.38;5047881;28;20484;-66
2022/06/15 02:14:17;;;;;;;4.65;3.42;;;;;;;17.66;46.83;101750.34;5029274;28;20037;-67
2022/06/15 02:16:58;;;;;;;6.40;4.15;;;;;;;17.64;47.20;101746.84;5020255;28;20040;-67
2022/06/15 02:19:33;;;;;;;6.40;3.80;;;;;;;17.63;46.97;101741.56;5051629;28;20045;-66
2022/06/15 02:22:17;;;;;;;4.97;3.70;;;;;;;17.60;47.35;101739.97;5001681;28;20129;-67
2022/06/15 02:24:48;;;;;;;5.93;4.15;;;;;;;17.60;46.93;101745.41;5030876;28;20041;-66
2022/06/15 02:27:16;;;;;;;5.45;4.10;;;;;;;17.56;47.46;101743.94;5033665;28;20041;-66
2022/06/15 02:29:55;;;;;;;6.97;4.47;;;;;;;17.55;47.36;101742.22;5034147;28;20034;-67
2022/06/15 02:32:24;;;;;;;6.28;4.15;;;;;;;17.54;47.38;101739.63;5034719;28;20491;-66
2022/06/15 02:34:51;;;;;;;6.57;3.85;;;;;;;17.52;47.40;101736.19;5035302;28;20085;-66
2022/06/15 02:37:17;;;;;;;7.10;4.38;;;;;;;17.50;47.61;101735.47;5045990;28;20048;-66
2022/06/15 02:39:44;;;;;;;6.20;3.80;;;;;;;17.48;47.37;101741.03;5036070;28;20041;-66
2022/06/15 02:42:20;;;;;;;6.95;4.30;;;;;;;17.48;47.99;101735.59;5036217;28;20091;-67
2022/06/15 02:44:54;;;;;;;7.25;4.43;;;;;;;17.45;47.80;101734.00;5041031;28;20044;-66
2022/06/15 02:47:24;;;;;;;4.45;4.05;;;;;;;17.43;47.36;101733.28;5035817;28;20093;-66
2022/06/15 02:49:51;;;;;;;6.97;4.20;;;;;;;17.41;47.86;101732.53;5037182;28;20046;-66
2022/06/15 02:52:28;;;;;;;4.90;4.05;;;;;;;17.40;47.37;101732.69;5066143;28;20218;-65
2022/06/15 02:54:55;;;;;;;7.10;4.85;;;;;;;17.39;47.65;101739.09;5043899;28;20029;-66
2022/06/15 02:57:26;;;;;;;5.35;4.40;;;;;;;17.37;47.71;101727.50;5034680;28;20042;-67
2022/06/15 02:59:55;;;;;;;5.55;4.30;;;;;;;17.35;47.91;101724.94;5036355;28;20124;-67
2022/06/15 03:02:30;;;;;;;6.45;4.15;;;;;;;17.32;47.56;101725.19;5036731;28;20062;-67
2022/06/15 03:04:56;;;;;;;7.43;4.78;;;;;;;17.30;47.82;101720.88;5066449;28;20447;-67
2022/06/15 03:07:26;;;;;;;6.07;4.40;;;;;;;17.26;47.86;101717.56;5033251;28;20042;-67
2022/06/15 03:09:55;;;;;;;7.65;4.60;;;;;;;17.25;48.00;101723.13;5066186;28;20041;-67
2022/06/15 03:12:26;;;;;;;8.45;4.90;;;;;;;17.21;47.96;101722.53;5033236;28;20499;-67
2022/06/15 03:14:53;;;;;;;7.45;4.82;;;;;;;17.20;47.90;101722.66;5040790;28;20068;-68
2022/06/15 03:17:21;;;;;;;4.82;4.05;;;;;;;17.17;48.01;101726.50;5032622;28;20076;-67
2022/06/15 03:20:07;;;;;;;6.32;4.32;;;;;;;17.14;48.21;101726.75;5042999;28;20037;-67
2022/06/15 03:22:37;;;;;;;8.35;4.75;;;;;;;17.11;47.84;101727.88;5034764;28;20491;-67
2022/06/15 03:25:11;;;;;;;12.63;5.00;;;;;;;17.07;48.15;101725.53;5014447;28;20084;-68
2022/06/15 03:27:38;;;;;;;6.63;4.97;;;;;;;17.05;48.12;101728.38;5038942;28;20050;-67
2022/06/15 03:30:08;;;;;;;6.30;4.60;;;;;;;17.02;48.45;101728.63;5068484;28;20419;-67
2022/06/15 03:32:46;;;;;;;6.13;4.47;;;;;;;17.00;48.20;101725.19;5022695;28;20103;-68
2022/06/15 03:35:15;;;;;;;8.98;4.85;;;;;;;16.98;48.51;101726.28;5030934;28;20503;-67
2022/06/15 03:37:42;;;;;;;6.57;5.15;;;;;;;16.96;48.23;101728.28;5034795;28;20037;-68
2022/06/15 03:40:32;;;;;;;8.20;4.68;;;;;;;16.95;48.25;101730.13;5036872;28;20071;-68
2022/06/15 03:43:00;;;;;;;8.18;5.13;;;;;;;16.94;48.43;101730.25;5032396;28;20040;-67
2022/06/15 03:45:29;;;;;;;7.57;4.28;;;;;;;16.91;48.53;101734.09;5032229;28;20065;-67
2022/06/15 03:47:57;;;;;;;6.65;5.18;;;;;;;16.89;48.61;101733.34;5022263;28;20048;-67
2022/06/15 03:50:26;;;;;;;7.60;5.10;;;;;;;16.87;48.40;101738.06;5029218;28;20056;-67
2022/06/15 03:53:03;;;;;;;8.45;5.18;;;;;;;16.87;48.48;101734.47;5037485;28;20462;-68
2022/06/15 03:55:35;;;;;;;7.50;4.75;;;;;;;16.86;48.58;101739.03;5020706;28;20095;-67
2022/06/15 03:58:18;;;;;;;7.05;4.63;;;;;;;16.84;48.75;101735.59;5036159;28;20049;-67
2022/06/15 04:00:49;;;;;;;8.20;5.00;;;;;;;16.84;48.97;101733.75;5031175;28;20055;-67
2022/06/15 04:03:21;;;;;;;7.05;4.82;;;;;;;16.83;48.84;101736.59;5030581;28;20072;-68
2022/06/15 04:06:02;;;;;;;7.78;5.25;;;;;;;16.82;48.83;101729.44;5063788;28;20108;-67
2022/06/15 04:08:42;;;;;;;6.40;4.90;;;;;;;16.82;49.06;101737.56;5032743;28;20561;-68
2022/06/15 04:14:21;;;;;;;8.30;5.25;;;;;;;16.83;49.02;101740.16;5038406;28;20045;-67
2022/06/15 04:16:59;;;;;;;8.25;5.10;;;;;;;16.82;48.98;101733.00;5017290;28;20100;-68
2022/06/15 04:20:31;;;;;;;11.75;5.22;;;;;;;16.82;49.16;101735.72;5029501;28;20053;-67
2022/06/15 04:22:36;;;;;;;6.32;5.00;;;;;;;16.83;49.02;101733.88;5035304;28;20072;-67
2022/06/15 04:25:03;;;;;;;10.50;6.25;;;;;;;16.83;49.10;101733.88;5038397;28;20458;-67
2022/06/15 04:27:32;;;;;;;7.68;5.60;;;;;;;16.82;49.60;101738.44;5031585;28;20033;-67
2022/06/15 04:29:59;;;;;;;9.02;5.57;;;;;;;16.82;49.66;101730.28;5031998;28;20116;-67
2022/06/15 04:32:27;;;;;;;7.28;6.03;;;;;;;16.85;49.71;101737.31;5032492;28;20045;-67
2022/06/15 04:34:54;;;;;;;7.07;5.97;;;;;;;16.87;49.52;101731.75;5030463;28;20045;-67
2022/06/15 04:37:21;;;;;;;7.25;5.22;;;;;;;16.88;49.77;101739.78;5036941;28;20439;-68
2022/06/15 04:39:51;;;;;;;8.68;5.50;;;;;;;16.91;49.73;101738.66;5032652;28;20495;-68
2022/06/15 04:42:22;;;;;;;6.72;5.70;;;;;;;16.92;49.91;101729.53;5039125;28;20087;-67
2022/06/15 04:44:49;;;;;;;9.93;5.82;;;;;;;16.95;49.78;101723.84;5033515;28;20511;-67
2022/06/15 04:47:17;;;;;;;9.82;6.10;;;;;;;16.97;49.78;101727.28;5033545;28;20099;-67
2022/06/15 04:49:43;;;;;;;10.30;6.28;;;;;;;16.97;49.79;101736.28;5040543;28;20045;-67
2022/06/15 04:52:19;;;;;;;9.32;5.95;;;;;;;16.98;50.33;101732.59;5016654;28;20577;-68
2022/06/15 04:54:46;;;;;;;9.18;5.93;;;;;;;17.01;50.09;101732.31;5033990;28;20045;-68
2022/06/15 04:57:13;;;;;;;13.55;7.05;;;;;;;17.04;50.46;101736.63;5041596;28;20502;-68
2022/06/15 04:59:40;;;;;;;9.30;5.88;;;;;;;17.06;50.10;101738.22;5046303;28;20034;-68
2022/06/15 05:02:17;;;;;;;7.57;5.55;;;;;;;17.10;50.54;101738.88;5031514;28;20080;-68
2022/06/15 05:04:44;;;;;;;8.55;5.75;;;;;;;17.12;50.67;101743.16;5027536;28;20068;-67
2022/06/15 05:07:13;;;;;;;9.10;5.70;;;;;;;17.17;50.60;101736.50;5025510;28;20053;-68
2022/06/15 05:09:41;;;;;;;9.05;6.00;;;;;;;17.21;50.54;101744.25;5029422;28;20041;-67
2022/06/15 05:12:09;;;;;;;9.07;5.70;;;;;;;17.26;50.36;101752.84;5036193;28;20051;-68
2022/06/15 05:14:38;;;;;;;7.28;4.80;;;;;;;17.33;50.38;101747.78;5035268;28;20106;-68
2022/06/15 05:17:06;;;;;;;9.13;5.63;;;;;;;17.37;50.54;101750.09;5030851;28;20553;-68
2022/06/15 05:19:35;;;;;;;7.95;5.00;;;;;;;17.42;50.35;101746.97;5028859;28;20072;-68
2022/06/15 05:22:03;;;;;;;10.77;5.75;;;;;;;17.46;50.60;101749.31;5060308;28;20522;-68
2022/06/15 05:24:38;;;;;;;9.23;5.55;;;;;;;17.52;50.82;101750.63;5037508;28;20068;-67
2022/06/15 05:27:08;;;;;;;12.93;6.35;;;;;;;17.59;50.67;101749.09;5034490;28;20124;-67
2022/06/15 05:29:37;;;;;;;9.10;5.55;;;;;;;17.65;50.63;101748.56;5040929;28;20124;-67
2022/06/15 05:32:19;;;;;;;14.55;6.00;;;;;;;17.71;50.74;101749.94;5027791;28;20407;-68
2022/06/15 05:34:46;;;;;;;9.63;6.28;;;;;;;17.76;50.89;101745.81;5048332;28;20056;-68
2022/06/15 05:37:15;;;;;;;7.00;5.43;;;;;;;17.82;51.22;101746.28;5029159;28;20049;-68
2022/06/15 05:39:42;;;;;;;8.50;5.68;;;;;;;17.86;50.73;101742.34;5049763;28;20054;-68
2022/06/15 05:42:13;;;;;;;9.18;6.07;;;;;;;17.91;51.20;101743.66;5026867;28;20558;-69
2022/06/15 05:44:51;;;;;;;8.40;5.45;;;;;;;17.98;51.15;101743.97;5030888;28;20414;-69
2022/06/15 05:47:17;;;;;;;8.93;5.65;;;;;;;18.05;50.86;101743.28;5034316;28;20037;-68
2022/06/15 05:49:55;;;;;;;13.05;6.10;;;;;;;18.14;50.88;101749.78;5030778;28;20140;-66
2022/06/15 05:52:37;;;;;;;8.75;5.40;;;;;;;18.26;50.82;101736.94;5030664;28;20041;-65
2022/06/15 05:55:05;;;;;;;10.85;6.75;;;;;;;18.38;50.92;101739.41;5031934;28;20045;-67
2022/06/15 05:57:31;;;;;;;9.52;6.05;;;;;;;18.53;51.06;101748.06;5033266;28;20038;-67
2022/06/15 05:59:58;;;;;;;10.00;5.78;;;;;;;18.67;50.81;101746.88;5031911;28;20724;-66
2022/06/15 06:02:27;;;;;;;8.15;6.28;;;;;;;18.82;51.15;101740.03;5033107;28;20128;-67
2022/06/15 06:04:54;;;;;;;9.10;6.13;;;;;;;18.99;50.65;101742.06;5030772;28;20041;-66
2022/06/15 06:07:21;;;;;;;7.30;5.43;;;;;;;19.20;50.81;101741.06;5032382;28;20129;-67
2022/06/15 06:09:49;;;;;;;11.45;5.82;;;;;;;19.41;50.41;101746.38;5033343;28;20065;-67
2022/06/15 06:12:19;;;;;;;10.35;5.72;;;;;;;19.61;50.81;101748.97;5034460;28;20091;-67
2022/06/15 06:14:47;;;;;;;6.93;4.97;;;;;;;19.83;50.17;101747.78;5031712;28;20065;-67
2022/06/15 06:17:13;;;;;;;10.13;4.00;;;;;;;19.98;50.22;101743.56;5032919;28;20072;-66
2022/06/15 06:19:40;;;;;;;9.82;4.72;;;;;;;20.11;49.92;101740.56;5031780;28;20041;-67
2022/06/15 06:22:16;;;;;;;9.15;4.80;;;;;;;20.28;49.21;101747.09;5032070;28;20042;-67
2022/06/15 06:24:47;;;;;;;6.72;4.78;;;;;;;20.47;49.21;101740.72;5031218;28;20052;-66
2022/06/15 06:27:15;;;;;;;10.07;4.78;;;;;;;20.63;49.37;101741.75;5024927;28;20034;-67
2022/06/15 06:29:42;;;;;;;11.20;4.82;;;;;;;20.83;48.88;101742.53;5034316;28;20120;-67
2022/06/15 06:32:15;;;;;;;11.80;4.88;;;;;;;21.02;48.90;101744.25;5033683;28;20116;-67
2022/06/15 06:34:41;;;;;;;6.07;3.67;;;;;;;21.21;48.45;101746.84;5028257;28;20041;-67
2022/06/15 06:37:12;;;;;;;6.63;4.47;;;;;;;21.43;48.08;101741.94;5036961;28;20099;-66
2022/06/15 06:39:40;;;;;;;7.82;4.05;;;;;;;21.60;47.98;101745.69;5027910;28;20381;-68
2022/06/15 06:42:10;;;;;;;8.20;4.45;;;;;;;21.77;47.54;101753.00;5023143;28;20038;-66
2022/06/15 06:44:37;;;;;;;9.68;4.80;;;;;;;21.95;47.28;101742.00;5032983;28;20133;-69
2022/06/15 06:47:05;;;;;;;9.68;4.00;;;;;;;22.16;46.92;101753.44;5031024;28;20069;-68
2022/06/15 06:49:33;;;;;;;8.25;4.47;;;;;;;22.34;46.96;101748.78;5031518;28;20108;-68
2022/06/15 06:52:00;;;;;;;6.53;4.35;;;;;;;22.46;46.35;101757.56;5018837;28;20068;-68
2022/06/15 06:54:27;;;;;;;13.93;4.53;;;;;;;22.58;46.15;101750.78;5034537;28;20557;-68
2022/06/15 06:56:53;;;;;;;5.80;3.67;;;;;;;22.73;45.77;101759.22;5033043;28;20045;-69
2022/06/15 06:59:27;;;;;;;6.88;4.10;;;;;;;22.91;45.45;101759.13;5033016;28;20403;-68
2022/06/15 07:01:53;;;;;;;7.97;4.15;;;;;;;23.03;45.35;101761.38;5033014;28;20043;-69
2022/06/15 07:04:20;;;;;;;7.82;4.30;;;;;;;23.18;45.31;101763.47;5032896;28;20084;-69
2022/06/15 07:06:47;;;;;;;6.57;4.22;;;;;;;23.31;45.06;101761.97;5033081;28;20035;-69
2022/06/15 07:09:14;;;;;;;7.90;3.83;;;;;;;23.46;44.51;101764.88;5032843;28;20069;-69
2022/06/15 07:11:43;;;;;;;4.97;3.50;;;;;;;23.59;44.54;101762.50;5034046;28;20060;-69
2022/06/15 07:14:13;;;;;;;5.93;4.32;;;;;;;23.74;44.26;101762.69;5025663;28;20111;-69
2022/06/15 07:16:40;;;;;;;4.70;3.50;;;;;;;23.88;44.00;101763.88;5020000;28;20491;-69
2022/06/15 07:19:07;;;;;;;6.65;4.05;;;;;;;24.00;43.70;101771.59;5023279;28;20073;-69
2022/06/15 07:21:34;;;;;;;7.45;3.97;;;;;;;24.15;43.62;101766.22;5024114;28;20045;-69
2022/06/15 07:24:02;;;;;;;5.28;4.00;;;;;;;24.31;43.27;101768.09;5023256;28;21443;-69
2022/06/15 07:26:41;;;;;;;6.30;3.58;;;;;;;24.44;43.34;101768.41;5023264;28;20083;-69
2022/06/15 07:29:11;;;;;;;6.80;3.80;;;;;;;24.57;42.86;101767.88;5029061;28;20042;-70
2022/06/15 07:31:40;;;;;;;5.85;3.65;;;;;;;24.66;42.80;101775.91;5030066;28;20052;-69
2022/06/15 07:34:08;;;;;;;7.90;3.42;;;;;;;24.81;42.17;101766.88;5020584;28;20110;-69
2022/06/15 07:36:37;;;;;;;5.07;2.88;;;;;;;24.93;42.12;101773.69;5025426;28;20053;-70
2022/06/15 07:39:04;;;;;;;7.07;3.38;;;;;;;25.08;41.65;101776.56;5035199;28;20042;-70
2022/06/15 07:41:33;;;;;;;5.10;3.30;;;;;;;25.21;41.46;101774.91;5024562;28;20042;-66
2022/06/15 07:44:04;;;;;;;7.78;3.47;;;;;;;25.30;41.06;101770.25;5018143;28;20042;-65
2022/06/15 07:46:31;;;;;;;8.65;3.60;;;;;;;25.37;40.91;101771.22;5022949;28;20049;-66
2022/06/15 07:52:07;;;;;;;6.18;2.88;;;;;;;25.57;40.25;101780.69;5018548;28;20060;-65
2022/06/15 07:54:34;;;;;;;7.75;3.00;;;;;;;25.66;40.03;101781.50;5032048;28;20072;-65
2022/06/15 07:57:00;;;;;;;5.22;2.92;;;;;;;25.73;40.27;101768.72;5023165;28;20064;-65
2022/06/15 07:59:27;;;;;;;6.40;2.90;;;;;;;25.85;39.88;101772.72;5018781;28;20066;-65
2022/06/15 08:01:53;;;;;;;7.60;2.65;;;;;;;26.00;39.50;101775.50;5017710;28;20042;-65
2022/06/15 08:04:22;;;;;;;5.28;2.90;;;;;;;26.13;39.30;101764.72;5027245;28;20045;-65
2022/06/15 08:06:49;;;;;;;5.75;2.53;;;;;;;26.23;38.66;101764.44;5031880;28;20108;-65
2022/06/15 08:09:16;;;;;;;8.55;3.08;;;;;;;26.28;38.50;101771.09;5031618;28;20089;-65
2022/06/15 08:12:11;;;;;;;5.68;2.50;;;;;;;26.33;38.56;101767.81;5031931;28;20045;-66
2022/06/15 08:14:49;;;;;;;5.75;3.08;;;;;;;26.46;38.31;101768.00;5031670;28;20107;-65
2022/06/15 08:17:21;;;;;;;5.55;2.85;;;;;;;26.57;38.03;101762.00;5030554;28;20049;-67
2022/06/15 08:19:52;;;;;;;3.78;2.50;;;;;;;26.65;37.85;101754.66;5031495;28;20116;-66
2022/06/15 08:22:20;;;;;;;9.20;2.70;;;;;;;26.76;37.39;101767.97;5031512;28;20116;-66
2022/06/15 08:24:48;;;;;;;7.50;2.47;;;;;;;26.85;37.63;101764.06;5031686;28;20068;-68
2022/06/15 08:27:19;;;;;;;8.52;2.88;;;;;;;26.92;37.44;101765.00;5034495;28;20133;-68
2022/06/15 08:29:47;;;;;;;4.80;2.78;;;;;;;27.01;37.33;101765.75;5058200;28;20083;-68
2022/06/15 08:32:15;;;;;;;5.38;2.80;;;;;;;27.10;37.42;101761.84;5031423;28;20120;-69
2022/06/15 08:34:41;;;;;;;5.35;3.28;;;;;;;27.17;37.04;101758.09;5034283;28;20043;-67
2022/06/15 08:37:12;;;;;;;6.85;3.03;;;;;;;27.22;36.66;101755.63;5031512;28;20120;-67
2022/06/15 08:39:40;;;;;;;8.35;3.30;;;;;;;27.30;36.67;101754.63;5031564;28;20037;-67
2022/06/15 08:42:13;;;;;;;7.05;3.03;;;;;;;27.43;36.56;101760.28;5031028;28;20077;-67
2022/06/15 08:45:27;;;;;;;8.57;3.67;;;;;;;27.60;36.36;101751.75;5032059;28;20499;-67
2022/06/15 08:48:12;;;;;;;5.80;2.70;;;;;;;27.74;36.31;101751.69;5051111;28;20503;-68
2022/06/15 08:50:46;;;;;;;4.57;2.30;;;;;;;27.82;36.19;101753.44;5031524;28;20060;-67
2022/06/15 08:53:24;;;;;;;7.93;3.25;;;;;;;27.89;35.59;101757.13;5031163;28;20667;-68
2022/06/15 08:56:01;;;;;;;7.65;2.70;;;;;;;27.97;35.78;101759.72;5031013;28;20057;-68
2022/06/15 08:58:39;;;;;;;5.28;2.50;;;;;;;28.02;35.51;101761.88;5031067;28;20091;-68
2022/06/15 09:01:44;;;;;;;6.80;2.28;;;;;;;28.12;35.07;101768.75;5017451;28;20571;-69
2022/06/15 09:04:20;;;;;;;5.57;2.90;;;;;;;28.26;34.99;101761.47;5030498;28;20069;-69
2022/06/15 09:06:56;;;;;;;7.82;3.03;;;;;;;28.39;34.79;101757.94;5030926;28;20510;-71
2022/06/15 09:09:44;;;;;;;5.53;2.78;;;;;;;28.46;34.30;101751.38;5030839;28;20073;-69
2022/06/15 09:12:50;;;;;;;5.88;2.80;;;;;;;28.54;34.23;101771.59;5030694;28;20041;-69
2022/06/15 09:15:31;;;;;;;6.65;3.08;;;;;;;28.63;34.30;101773.13;5031570;28;20047;-69
2022/06/15 09:18:03;;;;;;;7.20;2.65;;;;;;;28.69;34.14;101762.09;5034895;28;20037;-69
2022/06/15 09:20:37;;;;;;;5.82;2.75;;;;;;;28.74;33.96;101758.72;5034899;28;20489;-69
2022/06/15 09:23:08;;;;;;;7.18;3.13;;;;;;;28.78;33.71;101757.25;5034382;28;20080;-69
2022/06/15 09:25:47;;;;;;;5.75;2.60;;;;;;;28.83;33.33;101754.72;5034978;28;20132;-69
2022/06/15 09:28:34;;;;;;;6.88;2.75;;;;;;;28.84;33.11;101756.47;5035761;28;20442;-70
2022/06/15 09:31:08;;;;;;;5.78;3.10;;;;;;;28.95;33.05;101752.25;5038566;28;20041;-69
2022/06/15 09:33:53;;;;;;;8.00;3.42;;;;;;;28.97;32.93;101753.72;5034197;28;20060;-68
2022/06/15 09:36:25;;;;;;;6.63;2.85;;;;;;;29.01;32.85;101752.28;5034716;28;20092;-69
2022/06/15 09:38:52;;;;;;;7.07;3.55;;;;;;;29.08;32.82;101750.41;5034434;28;20045;-69
2022/06/15 09:41:33;;;;;;;5.57;2.65;;;;;;;29.12;32.58;101742.53;5038778;28;20616;-70
2022/06/15 09:44:25;;;;;;;5.38;2.90;;;;;;;29.16;32.17;101751.25;5029146;28;20050;-69
2022/06/15 09:47:29;;;;;;;5.82;2.47;;;;;;;29.19;31.96;101745.31;5034464;28;20061;-69
2022/06/15 09:50:18;;;;;;;8.50;3.40;;;;;;;29.22;32.02;101744.88;5034356;28;20544;-70
2022/06/15 09:53:03;;;;;;;5.72;2.70;;;;;;;29.25;31.85;101741.69;5022609;28;20038;-70
2022/06/15 09:55:44;;;;;;;6.22;2.63;;;;;;;29.33;31.80;101741.50;5033997;28;20128;-70
2022/06/15 09:58:35;;;;;;;7.28;2.60;;;;;;;29.45;32.00;101745.38;5033819;28;20041;-70
2022/06/15 10:01:02;;;;;;;5.32;2.50;;;;;;;29.51;31.80;101741.75;5029296;28;20503;-72
2022/06/15 10:03:38;;;;;;;6.43;2.45;;;;;;;29.58;31.41;101733.44;5028063;28;20060;-68
2022/06/15 10:06:15;;;;;;;5.78;2.20;;;;;;;29.70;31.04;101749.22;5033880;28;20125;-69
2022/06/15 10:08:42;;;;;;;7.28;2.20;;;;;;;29.78;31.08;101737.09;5033967;28;20213;-69
2022/06/15 10:11:15;;;;;;;6.07;2.45;;;;;;;29.86;30.97;101742.41;5033909;28;20103;-69
2022/06/15 10:13:43;;;;;;;5.53;2.28;;;;;;;29.97;31.06;101736.22;5034748;28;20076;-70
2022/06/15 10:16:24;;;;;;;4.43;2.20;;;;;;;30.07;30.63;101734.97;5033702;28;20075;-70
2022/06/15 10:18:55;;;;;;;4.65;2.17;;;;;;;30.17;30.66;101738.97;5033821;28;20064;-70
2022/06/15 10:21:26;;;;;;;4.35;2.20;;;;;;;30.25;30.46;101724.91;5033827;28;20325;-70
2022/06/15 10:24:11;;;;;;;6.38;2.50;;;;;;;30.30;29.96;101733.41;5033464;28;20053;-69
2022/06/15 10:26:38;;;;;;;27.55;24.92;;;;;;;30.32;30.04;101734.03;5019444;28;20446;-67
2022/06/15 10:29:30;;;;;;;9.15;3.20;;;;;;;30.38;29.89;101731.47;5033268;28;20507;-67
2022/06/15 10:32:02;;;;;;;6.38;2.60;;;;;;;30.51;29.75;101737.84;5022998;28;20049;-67
2022/06/15 10:34:46;;;;;;;6.15;2.20;;;;;;;30.59;29.67;101725.69;5037333;28;20386;-68
2022/06/15 10:37:20;;;;;;;4.43;2.20;;;;;;;30.70;29.30;101727.78;5046280;28;20503;-69
2022/06/15 10:39:50;;;;;;;5.90;2.08;;;;;;;30.81;29.42;101721.53;5032288;28;20499;-68
2022/06/15 10:42:29;;;;;;;8.98;2.78;;;;;;;30.89;29.26;101715.72;5033621;28;20049;-68
2022/06/15 10:44:59;;;;;;;5.45;2.30;;;;;;;30.99;29.06;101729.97;5033518;28;20049;-69
2022/06/15 10:47:35;;;;;;;6.78;2.40;;;;;;;31.11;28.88;101732.03;5019931;28;20124;-69
2022/06/15 10:50:07;;;;;;;5.40;2.25;;;;;;;31.21;29.09;101715.75;5033192;28;20446;-69
2022/06/15 10:52:42;;;;;;;4.93;2.72;;;;;;;31.26;28.45;101718.75;5034486;28;20044;-69
2022/06/15 11:04:09;;;;;;;8.13;2.58;;;;;;;31.58;28.05;101712.06;5033186;28;20063;-68
2022/06/15 11:07:02;;;;;;;5.63;2.20;;;;;;;31.63;27.92;101704.97;5033529;28;20503;-69
2022/06/15 11:09:40;;;;;;;4.00;1.88;;;;;;;31.71;27.87;101704.72;5034499;28;20052;-68
2022/06/15 11:12:39;;;;;;;6.18;2.20;;;;;;;31.75;27.75;101705.97;5038329;28;20045;-69
2022/06/15 11:15:13;;;;;;;5.25;2.05;;;;;;;31.83;27.91;101705.69;5019357;28;20437;-69
2022/06/15 11:18:03;;;;;;;3.45;2.05;;;;;;;31.92;27.99;101712.63;5032959;28;20038;-69
2022/06/15 11:20:42;;;;;;;5.55;2.00;;;;;;;32.01;28.07;101716.00;5023681;28;20140;-69
2022/06/15 11:24:01;;;;;;;6.55;2.05;;;;;;;32.10;27.63;101709.06;5031841;28;20049;-69
2022/06/15 11:29:37;;;;;;;4.65;2.22;;;;;;;32.38;27.44;101698.28;5027553;28;20053;-69
2022/06/15 11:32:34;;;;;;;5.55;2.00;;;;;;;32.43;27.02;101695.66;5031433;28;20040;-69
2022/06/15 11:35:21;;;;;;;5.13;1.98;;;;;;;32.43;26.93;101683.66;5027395;28;20045;-69
2022/06/15 11:37:53;;;;;;;3.70;2.33;;;;;;;32.46;26.81;101689.63;5033059;28;20044;-69
2022/06/15 11:40:49;;;;;;;5.85;2.17;;;;;;;32.44;26.67;101699.28;5028242;28;20120;-66
2022/06/15 11:43:21;;;;;;;4.53;2.00;;;;;;;32.52;26.70;101690.63;5024278;28;20115;-68
2022/06/15 11:46:23;;;;;;;5.28;2.03;;;;;;;32.58;26.78;101695.25;5030184;28;20076;-67
2022/06/15 11:49:06;;;;;;;4.82;2.33;;;;;;;32.64;26.93;101687.88;5021601;28;20042;-66
2022/06/15 11:51:38;;;;;;;6.00;2.20;;;;;;;32.61;26.82;101693.91;5032307;28;20091;-66
2022/06/15 11:54:12;;;;;;;3.42;1.88;;;;;;;32.55;26.67;101691.00;5027593;28;20138;-67
2022/06/15 11:56:57;;;;;;;4.78;2.08;;;;;;;32.53;26.86;101683.97;5028197;28;20065;-66
2022/06/15 11:59:47;;;;;;;;;;;;;;;32.49;26.86;101683.59;5043395;28;20061;-66
2022/06/15 12:02:45;;;;;;;5.35;2.20;;;;;;;32.59;26.85;101680.25;5036970;28;19921;-67
2022/06/15 12:05:32;;;;;;;4.93;2.17;;;;;;;32.66;26.66;101674.59;5021069;28;20034;-66
2022/06/15 12:08:04;;;;;;;5.40;1.80;;;;;;;32.75;26.90;101685.19;5031769;28;20041;-66
2022/06/15 12:10:50;;;;;;;7.15;2.30;;;;;;;32.80;26.74;101688.16;5031493;28;20136;-66
2022/06/15 12:13:38;;;;;;;5.55;2.55;;;;;;;32.78;26.71;101689.47;5030271;28;20045;-69
2022/06/15 12:16:19;;;;;;;4.85;1.92;;;;;;;32.81;26.60;101683.44;5031456;28;20041;-69